createdAt,value
2023-04-20T00:02:37.261Z,19.25
2023-04-20T00:05:13.958Z,18.15
2023-04-20T00:07:48.565Z,17.57
2023-04-20T00:10:27.884Z,18.17
2023-04-20T00:13:05.082Z,18.55
2023-04-20T00:15:43.666Z,18.23
2023-04-20T00:18:23.861Z,19.33
2023-04-20T00:21:03.978Z,18.70
2023-04-20T00:23:46.083Z,19.20
2023-04-20T00:26:27.135Z,21.15
2023-04-20T00:29:04.576Z,17.40
2023-04-20T00:31:45.985Z,19.88
2023-04-20T00:34:27.631Z,18.45
2023-04-20T00:37:05.278Z,17.10
2023-04-20T00:39:41.572Z,19.80
2023-04-20T00:42:17.726Z,20.38
2023-04-20T00:44:53.998Z,19.67
2023-04-20T00:47:36.219Z,22.13
2023-04-20T00:50:17.136Z,23.37
2023-04-20T00:52:54.524Z,22.20
2023-04-20T00:55:30.779Z,22.50
2023-04-20T00:58:15.586Z,22.35
2023-04-20T01:00:50.953Z,22.33
2023-04-20T01:03:26.726Z,20.83
2023-04-20T01:06:13.064Z,24.27
2023-04-20T01:08:52.225Z,23.90
2023-04-20T01:11:32.198Z,21.95
2023-04-20T01:14:17.432Z,22.17
2023-04-20T01:16:54.268Z,23.05
2023-04-20T01:19:33.550Z,22.90
2023-04-20T01:22:22.389Z,19.55
2023-04-20T01:24:59.981Z,21.50
2023-04-20T01:27:37.476Z,22.45
2023-04-20T01:30:16.080Z,20.70
2023-04-20T01:32:52.786Z,20.07
2023-04-20T01:35:31.475Z,20.23
2023-04-20T01:38:10.308Z,19.80
2023-04-20T01:40:45.938Z,20.40
2023-04-20T01:43:24.210Z,20.88
2023-04-20T01:46:05.293Z,20.73
2023-04-20T01:48:57.927Z,20.43
2023-04-20T01:51:34.447Z,19.92
2023-04-20T01:54:13.223Z,20.50
2023-04-20T01:56:52.030Z,20.65
2023-04-20T01:59:28.285Z,19.00
2023-04-20T02:02:06.551Z,20.20
2023-04-20T02:04:42.501Z,19.40
2023-04-20T02:07:18.563Z,20.73
2023-04-20T02:09:57.884Z,20.20
2023-04-20T02:12:33.322Z,20.08
2023-04-20T02:15:10.633Z,18.93
2023-04-20T02:17:53.364Z,20.13
2023-04-20T02:20:30.989Z,20.60
2023-04-20T02:23:08.186Z,20.42
2023-04-20T02:25:49.208Z,19.95
2023-04-20T02:28:28.059Z,18.60
2023-04-20T02:31:03.214Z,20.15
2023-04-20T02:33:39.443Z,20.90
2023-04-20T02:36:14.911Z,18.58
2023-04-20T02:38:56.692Z,18.15
2023-04-20T02:41:38.746Z,18.73
2023-04-20T02:44:14.616Z,17.88
2023-04-20T02:46:55.641Z,19.40
2023-04-20T02:49:44.501Z,20.70
2023-04-20T02:52:29.317Z,20.95
2023-04-20T02:55:17.158Z,21.10
2023-04-20T02:58:04.395Z,22.05
2023-04-20T03:01:05.165Z,20.58
2023-04-20T03:03:42.834Z,21.53
2023-04-20T03:06:22.292Z,21.25
2023-04-20T03:09:04.427Z,20.85
2023-04-20T03:12:03.266Z,20.17
2023-04-20T03:15:04.470Z,19.27
2023-04-20T03:17:54.873Z,20.15
2023-04-20T03:20:36.149Z,20.58
2023-04-20T03:23:12.722Z,20.73
2023-04-20T03:25:55.211Z,21.20
2023-04-20T03:28:42.870Z,22.10
2023-04-20T03:31:27.053Z,20.65
2023-04-20T03:34:06.738Z,23.00
2023-04-20T03:36:42.698Z,20.92
2023-04-20T03:39:30.082Z,20.55
2023-04-20T03:42:06.647Z,19.17
2023-04-20T03:44:47.813Z,21.25
2023-04-20T03:47:32.990Z,20.48
2023-04-20T03:50:13.529Z,20.42
2023-04-20T03:52:50.063Z,19.47
2023-04-20T03:55:27.540Z,18.42
2023-04-20T03:58:11.791Z,17.50
2023-04-20T04:01:04.595Z,20.53
2023-04-20T04:03:48.239Z,21.50
2023-04-20T04:06:28.831Z,22.45
2023-04-20T04:09:09.080Z,22.10
2023-04-20T04:11:49.618Z,22.63
2023-04-20T04:14:27.615Z,22.65
2023-04-20T04:17:08.489Z,23.50
2023-04-20T04:20:00.521Z,22.02
2023-04-20T04:22:39.220Z,23.77
2023-04-20T04:25:36.085Z,23.10
2023-04-20T04:28:14.339Z,21.37
2023-04-20T04:33:41.916Z,21.98
2023-04-20T04:36:22.454Z,22.13
2023-04-20T04:38:59.624Z,23.08
2023-04-20T04:41:38.669Z,22.37
2023-04-20T04:44:32.972Z,23.60
2023-04-20T04:47:32.032Z,25.80
2023-04-20T04:50:17.866Z,23.85
2023-04-20T04:52:57.940Z,23.55
2023-04-20T04:55:36.687Z,23.35
2023-04-20T04:58:14.128Z,23.13
2023-04-20T05:00:53.087Z,24.15
2023-04-20T05:03:34.230Z,23.05
2023-04-20T05:06:11.653Z,24.88
2023-04-20T05:08:50.939Z,24.30
2023-04-20T05:11:32.283Z,26.37
2023-04-20T05:14:08.127Z,27.10
2023-04-20T05:16:47.093Z,25.35
2023-04-20T05:19:24.761Z,25.60
2023-04-20T05:22:02.207Z,27.80
2023-04-20T05:24:40.813Z,27.95
2023-04-20T05:27:16.706Z,30.52
2023-04-20T05:29:51.993Z,30.90
2023-04-20T05:32:31.601Z,30.53
2023-04-20T05:35:05.805Z,31.75
2023-04-20T05:37:49.592Z,33.30
2023-04-20T05:40:34.370Z,31.55
2023-04-20T05:43:10.936Z,32.87
2023-04-20T05:45:47.577Z,33.30
2023-04-20T05:48:23.939Z,32.40
2023-04-20T05:51:01.777Z,33.75
2023-04-20T05:53:36.955Z,37.05
2023-04-20T05:56:31.649Z,34.30
2023-04-20T05:59:11.571Z,33.03
2023-04-20T06:01:51.701Z,35.00
2023-04-20T06:04:31.600Z,34.88
2023-04-20T06:07:12.099Z,36.03
2023-04-20T06:09:46.745Z,33.97
2023-04-20T06:12:26.283Z,35.03
2023-04-20T06:15:06.849Z,34.20
2023-04-20T06:17:45.634Z,33.10
2023-04-20T06:20:23.278Z,34.58
2023-04-20T06:22:59.532Z,33.13
2023-04-20T06:25:48.564Z,33.03
2023-04-20T06:28:27.344Z,34.45
2023-04-20T06:31:07.988Z,35.22
2023-04-20T06:33:45.559Z,35.45
2023-04-20T06:36:22.354Z,34.75
2023-04-20T06:41:35.712Z,36.53
2023-04-20T06:44:19.536Z,34.55
2023-04-20T06:46:59.541Z,29.40
2023-04-20T06:49:39.724Z,34.00
2023-04-20T06:52:18.954Z,32.90
2023-04-20T06:54:53.963Z,34.20
2023-04-20T06:57:30.609Z,28.73
2023-04-20T07:00:11.342Z,31.00
2023-04-20T07:02:51.058Z,33.33
2023-04-20T07:05:29.225Z,33.70
2023-04-20T07:08:05.011Z,34.00
2023-04-20T07:10:41.966Z,34.30
2023-04-20T07:13:18.007Z,32.55
2023-04-20T07:15:56.168Z,31.30
2023-04-20T07:18:31.925Z,33.38
2023-04-20T07:21:15.196Z,33.38
2023-04-20T07:23:56.676Z,32.15
2023-04-20T07:26:35.736Z,23.80
2023-04-20T07:29:57.006Z,30.02
2023-04-20T07:32:41.822Z,31.95
2023-04-20T07:35:18.462Z,34.70
2023-04-20T07:37:57.224Z,34.42
2023-04-20T07:40:39.608Z,32.03
2023-04-20T07:43:16.337Z,33.58
2023-04-20T07:45:53.404Z,34.95
2023-04-20T07:48:33.710Z,35.67
2023-04-20T07:51:12.202Z,34.50
2023-04-20T07:53:52.453Z,34.17
2023-04-20T07:56:29.262Z,34.00
2023-04-20T07:59:09.085Z,34.80
2023-04-20T08:01:46.869Z,35.15
2023-04-20T08:04:22.912Z,34.25
2023-04-20T08:07:00.236Z,35.25
2023-04-20T08:09:34.736Z,31.05
2023-04-20T08:12:14.108Z,31.57
2023-04-20T08:14:51.960Z,29.92
2023-04-20T08:17:26.645Z,33.00
2023-04-20T08:20:06.510Z,31.33
2023-04-20T08:22:45.789Z,33.83
2023-04-20T08:25:24.233Z,33.33
2023-04-20T08:27:59.565Z,32.90
2023-04-20T08:30:40.747Z,31.20
2023-04-20T08:33:18.950Z,31.67
2023-04-20T08:35:54.900Z,29.80
2023-04-20T08:38:34.141Z,30.65
2023-04-20T08:41:12.293Z,31.80
2023-04-20T08:43:48.957Z,29.33
2023-04-20T08:46:29.863Z,32.53
2023-04-20T08:49:05.290Z,31.85
2023-04-20T08:51:43.564Z,32.38
2023-04-20T08:54:19.470Z,31.63
2023-04-20T08:57:03.094Z,32.10
2023-04-20T08:59:42.839Z,30.43
2023-04-20T09:02:19.713Z,30.33
2023-04-20T09:05:05.657Z,31.40
2023-04-20T09:07:45.691Z,28.25
2023-04-20T09:10:25.812Z,31.02
2023-04-20T09:13:04.666Z,30.73
2023-04-20T09:15:42.204Z,31.25
2023-04-20T09:18:19.321Z,31.48
2023-04-20T09:20:58.254Z,30.10
2023-04-20T09:23:33.811Z,30.30
2023-04-20T09:26:12.265Z,31.65
2023-04-20T09:28:47.847Z,30.60
2023-04-20T09:31:23.460Z,30.17
2023-04-20T09:34:06.185Z,28.75
2023-04-20T09:36:46.440Z,29.75
2023-04-20T09:39:22.495Z,29.55
2023-04-20T09:44:39.721Z,27.23
2023-04-20T09:47:21.175Z,24.80
2023-04-20T09:49:57.310Z,27.13
2023-04-20T09:52:39.494Z,26.75
2023-04-20T09:55:20.297Z,25.70
2023-04-20T09:57:56.987Z,25.58
2023-04-20T10:00:38.591Z,27.52
2023-04-20T10:03:14.169Z,26.80
2023-04-20T10:06:00.559Z,25.85
2023-04-20T10:08:50.479Z,25.92
2023-04-20T10:11:40.407Z,26.92
2023-04-20T10:14:23.568Z,29.83
2023-04-20T10:17:07.982Z,27.45
2023-04-20T10:19:45.602Z,25.08
2023-04-20T10:22:33.495Z,26.20
2023-04-20T10:25:22.809Z,24.20
2023-04-20T10:28:00.680Z,25.77
2023-04-20T10:30:36.904Z,24.55
2023-04-20T10:33:15.771Z,26.70
2023-04-20T10:35:56.155Z,24.55
2023-04-20T10:38:31.300Z,23.55
2023-04-20T10:41:17.930Z,23.42
2023-04-20T10:43:58.705Z,25.30
2023-04-20T10:46:39.801Z,25.30
2023-04-20T10:49:18.431Z,26.67
2023-04-20T10:51:58.912Z,26.05
2023-04-20T10:54:43.319Z,26.23
2023-04-20T10:57:24.602Z,25.67
2023-04-20T11:00:02.905Z,22.55
2023-04-20T11:02:38.432Z,23.17
2023-04-20T11:05:18.545Z,24.48
2023-04-20T11:07:57.376Z,24.85
2023-04-20T11:10:41.495Z,24.80
2023-04-20T11:13:30.229Z,25.70
2023-04-20T11:16:17.524Z,24.08
2023-04-20T11:18:54.301Z,27.60
2023-04-20T11:21:40.235Z,25.27
2023-04-20T11:24:28.184Z,25.17
2023-04-20T11:27:05.630Z,24.83
2023-04-20T11:29:44.092Z,22.67
2023-04-20T11:32:24.124Z,26.63
2023-04-20T11:35:06.969Z,24.90
2023-04-20T11:37:51.832Z,22.80
2023-04-20T11:40:30.308Z,23.17
2023-04-20T11:43:11.453Z,22.42
2023-04-20T11:45:56.041Z,23.05
2023-04-20T11:48:34.890Z,22.25
2023-04-20T11:51:13.607Z,22.80
2023-04-20T11:53:49.995Z,20.85
2023-04-20T11:56:28.914Z,23.30
2023-04-20T11:59:03.687Z,21.98
2023-04-20T12:01:45.147Z,24.73
2023-04-20T12:04:25.989Z,24.45
2023-04-20T12:07:00.764Z,24.40
2023-04-20T12:09:39.485Z,24.33
2023-04-20T12:12:16.003Z,25.33
2023-04-20T12:14:52.710Z,23.25
2023-04-20T12:17:32.644Z,23.63
2023-04-20T12:20:12.638Z,23.05
2023-04-20T12:22:51.164Z,20.33
2023-04-20T12:25:26.710Z,20.38
2023-04-20T12:28:07.440Z,18.60
2023-04-20T12:30:46.637Z,17.00
2023-04-20T12:33:26.291Z,17.33
2023-04-20T12:36:02.949Z,15.52
2023-04-20T12:38:40.539Z,16.05
2023-04-20T12:41:18.957Z,15.07
2023-04-20T12:43:56.626Z,15.95
2023-04-20T12:46:32.910Z,16.40
2023-04-20T12:49:14.804Z,17.13
2023-04-20T12:51:50.543Z,19.25
2023-04-20T12:54:26.473Z,16.55
2023-04-20T12:57:05.348Z,16.35
2023-04-20T12:59:43.652Z,17.67
2023-04-20T13:02:23.442Z,15.95
2023-04-20T13:05:11.696Z,16.77
2023-04-20T13:07:47.026Z,14.88
2023-04-20T13:10:24.750Z,14.57
2023-04-20T13:13:04.892Z,14.93
2023-04-20T13:15:41.752Z,14.38
2023-04-20T13:18:20.632Z,13.77
2023-04-20T13:20:59.519Z,13.47
2023-04-20T13:23:36.446Z,15.55
2023-04-20T13:26:13.501Z,18.08
2023-04-20T13:28:49.541Z,18.05
2023-04-20T13:31:26.795Z,17.02
2023-04-20T13:34:03.418Z,19.00
2023-04-20T13:36:45.551Z,16.75
2023-04-20T13:39:22.925Z,16.80
2023-04-20T13:42:00.489Z,16.53
2023-04-20T13:44:37.284Z,14.93
2023-04-20T13:47:16.311Z,13.90
2023-04-20T13:49:58.501Z,11.05
2023-04-20T13:52:42.936Z,10.43
2023-04-20T13:55:26.830Z,8.40
2023-04-20T13:58:05.569Z,8.80
2023-04-20T14:00:42.109Z,8.35
2023-04-20T14:03:22.536Z,8.23
2023-04-20T14:06:00.574Z,7.30
2023-04-20T14:08:44.317Z,7.07
2023-04-20T14:11:20.548Z,7.40
2023-04-20T14:14:03.494Z,7.35
2023-04-20T14:16:48.159Z,7.95
2023-04-20T14:19:26.302Z,8.07
2023-04-20T14:22:02.463Z,8.55
2023-04-20T14:24:42.496Z,7.53
2023-04-20T14:27:18.523Z,6.53
2023-04-20T14:29:55.072Z,6.55
2023-04-20T14:32:32.746Z,6.90
2023-04-20T14:35:10.130Z,6.03
2023-04-20T14:37:47.632Z,6.30
2023-04-20T14:40:21.845Z,5.77
2023-04-20T14:43:00.308Z,4.70
2023-04-20T14:45:37.401Z,5.45
2023-04-20T14:48:18.170Z,4.95
2023-04-20T14:50:55.812Z,5.30
2023-04-20T14:53:33.169Z,4.03
2023-04-20T14:56:12.663Z,4.35
2023-04-20T14:58:54.765Z,4.45
2023-04-20T15:01:29.774Z,4.07
2023-04-20T15:04:06.155Z,5.63
2023-04-20T15:06:44.910Z,4.93
2023-04-20T15:09:22.666Z,3.75
2023-04-20T15:12:00.486Z,3.92
2023-04-20T15:14:34.689Z,4.07
2023-04-20T15:17:14.317Z,4.55
2023-04-20T15:19:52.527Z,5.10
2023-04-20T15:22:29.118Z,4.28
2023-04-20T15:25:04.242Z,4.18
2023-04-20T15:27:38.963Z,4.20
2023-04-20T15:30:16.793Z,4.20
2023-04-20T15:33:04.696Z,4.22
2023-04-20T15:35:44.480Z,4.55
2023-04-20T15:38:20.924Z,5.20
2023-04-20T15:40:59.142Z,4.60
2023-04-20T15:43:37.220Z,4.22
2023-04-20T15:46:13.364Z,5.25
2023-04-20T15:48:52.186Z,5.25
2023-04-20T15:51:29.870Z,5.20
2023-04-20T15:54:04.288Z,4.65
2023-04-20T15:56:42.253Z,42.35
2023-04-20T15:59:16.533Z,25.25
2023-04-20T16:04:51.874Z,8.23
2023-04-20T16:16:30.108Z,13.30
2023-04-20T16:19:09.230Z,8.80
2023-04-20T16:21:49.827Z,11.10
2023-04-20T16:24:27.324Z,8.80
2023-04-20T16:27:03.358Z,14.88
2023-04-20T16:29:40.860Z,18.40
2023-04-20T16:32:22.512Z,26.20
2023-04-20T16:35:00.513Z,10.80
2023-04-20T16:37:42.060Z,9.67
2023-04-20T16:40:19.929Z,12.45
2023-04-20T16:42:58.384Z,20.42
2023-04-20T16:45:36.508Z,10.20
2023-04-20T16:48:20.198Z,8.70
2023-04-20T16:51:01.492Z,9.75
2023-04-20T16:53:45.718Z,10.20
2023-04-20T16:56:33.488Z,7.60
2023-04-20T16:59:08.585Z,8.95
2023-04-20T17:01:46.787Z,9.02
2023-04-20T17:04:26.329Z,9.38
2023-04-20T17:19:38.115Z,6.32
2023-04-20T17:28:29.728Z,6.32
2023-04-20T17:34:08.828Z,6.00
2023-04-20T17:36:51.847Z,5.70
2023-04-20T17:39:29.102Z,6.50
2023-04-20T17:42:10.581Z,6.13
2023-04-20T17:44:48.880Z,5.88
2023-04-20T17:47:28.861Z,7.05
2023-04-20T17:50:08.089Z,6.10
2023-04-20T17:52:50.130Z,6.15
2023-04-20T17:55:31.726Z,6.45
2023-04-20T17:58:10.110Z,4.95
2023-04-20T18:00:46.077Z,6.53
2023-04-20T18:03:23.333Z,6.70
2023-04-20T18:06:04.161Z,6.55
2023-04-20T18:08:39.634Z,5.88
2023-04-20T18:11:19.484Z,5.75
2023-04-20T18:13:56.121Z,6.47
2023-04-20T18:16:33.887Z,6.05
2023-04-20T18:19:11.939Z,6.78
2023-04-20T18:21:48.620Z,6.47
2023-04-20T18:24:27.510Z,7.40
2023-04-20T18:27:06.744Z,7.25
2023-04-20T18:29:43.918Z,8.10
2023-04-20T18:32:20.675Z,9.98
2023-04-20T18:34:59.577Z,20.38
2023-04-20T18:37:45.002Z,19.98
2023-04-20T18:40:22.407Z,20.85
2023-04-20T18:43:06.651Z,16.70
2023-04-20T18:45:44.591Z,15.45
2023-04-20T18:48:21.817Z,15.05
2023-04-20T18:51:02.829Z,12.32
2023-04-20T18:53:42.147Z,12.00
2023-04-20T18:56:22.649Z,11.27
2023-04-20T18:59:04.469Z,11.02
2023-04-20T19:01:43.750Z,9.90
2023-04-20T19:04:20.463Z,10.60
2023-04-20T19:06:59.082Z,8.57
2023-04-20T19:09:49.058Z,9.70
2023-04-20T19:12:23.563Z,9.40
2023-04-20T19:15:06.415Z,10.68
2023-04-20T19:17:44.054Z,9.90
2023-04-20T19:20:20.767Z,11.20
2023-04-20T19:22:59.655Z,13.65
2023-04-20T19:25:38.579Z,13.70
2023-04-20T19:28:14.540Z,13.63
2023-04-20T19:30:55.221Z,12.97
2023-04-20T19:33:32.594Z,13.20
2023-04-20T19:36:13.376Z,18.57
2023-04-20T19:38:50.908Z,18.92
2023-04-20T19:41:28.964Z,19.45
2023-04-20T19:44:10.459Z,16.73
2023-04-20T19:46:54.552Z,14.05
2023-04-20T19:49:31.492Z,14.02
2023-04-20T19:52:08.135Z,13.77
2023-04-20T19:54:44.116Z,13.40
2023-04-20T19:59:59.619Z,14.65
2023-04-20T20:02:36.946Z,11.50
2023-04-20T20:05:17.368Z,12.77
2023-04-20T20:08:02.592Z,13.70
2023-04-20T20:10:40.990Z,12.20
2023-04-20T20:13:19.553Z,11.57
2023-04-20T20:16:01.002Z,14.43
2023-04-20T20:18:36.513Z,13.50
2023-04-20T20:21:20.348Z,12.10
2023-04-20T20:23:54.724Z,15.60
2023-04-20T20:26:38.604Z,14.20
2023-04-20T20:29:16.910Z,13.17
2023-04-20T20:31:52.580Z,15.13
2023-04-20T20:34:29.336Z,16.60
2023-04-20T20:37:10.876Z,16.35
2023-04-20T20:39:48.995Z,15.35
2023-04-20T20:42:32.232Z,16.07
2023-04-20T20:45:13.624Z,17.95
2023-04-20T20:47:52.681Z,21.08
2023-04-20T20:50:28.919Z,22.45
2023-04-20T20:53:09.940Z,23.52
2023-04-20T20:55:48.412Z,19.17
2023-04-20T20:58:27.425Z,19.63
2023-04-20T21:01:08.185Z,16.85
2023-04-20T21:03:44.797Z,23.70
2023-04-20T21:06:22.707Z,23.73
2023-04-20T21:09:02.801Z,23.10
2023-04-20T21:11:34.788Z,25.40
2023-04-20T21:14:18.786Z,29.43
2023-04-20T21:17:00.684Z,29.13
2023-04-20T21:19:40.385Z,32.83
2023-04-20T21:22:22.157Z,34.95
2023-04-20T21:25:08.131Z,33.85
2023-04-20T21:27:48.821Z,36.65
2023-04-20T21:30:31.221Z,38.10
2023-04-20T21:33:11.612Z,35.20
2023-04-20T21:35:57.662Z,31.40
2023-04-20T21:38:36.750Z,31.97
2023-04-20T21:41:18.241Z,30.70
2023-04-20T21:43:56.500Z,29.88
2023-04-20T21:46:34.225Z,30.65
2023-04-20T21:49:09.475Z,28.67
2023-04-20T21:51:44.991Z,32.73
2023-04-20T21:54:21.020Z,31.20
2023-04-20T21:59:35.277Z,29.13
2023-04-20T22:02:10.556Z,28.93
2023-04-20T22:04:46.258Z,29.38
2023-04-20T22:07:24.356Z,27.10
2023-04-20T22:10:00.465Z,26.67
2023-04-20T22:15:28.062Z,23.00
2023-04-20T22:18:04.500Z,21.45
2023-04-20T22:20:44.476Z,19.83
2023-04-20T22:23:22.641Z,21.08
2023-04-20T22:25:58.461Z,20.70
2023-04-20T22:28:39.639Z,20.65
2023-04-20T22:31:18.160Z,21.05
2023-04-20T22:33:55.712Z,18.97
2023-04-20T22:36:29.813Z,17.05
2023-04-20T22:39:06.119Z,19.27
2023-04-20T22:41:43.616Z,18.17
2023-04-20T22:44:25.416Z,16.20
2023-04-20T22:47:01.584Z,15.77
2023-04-20T22:49:38.791Z,14.80
2023-04-20T22:52:15.949Z,15.82
2023-04-20T22:54:53.042Z,15.15
2023-04-20T22:57:31.947Z,15.00
2023-04-20T23:00:14.818Z,14.40
2023-04-20T23:02:51.033Z,13.75
2023-04-20T23:05:30.255Z,14.90
2023-04-20T23:08:04.767Z,15.65
2023-04-20T23:10:43.444Z,13.32
2023-04-20T23:13:20.232Z,14.90
2023-04-20T23:15:59.829Z,13.73
2023-04-20T23:18:35.533Z,15.57
2023-04-20T23:21:13.528Z,17.65
2023-04-20T23:23:50.212Z,16.97
2023-04-20T23:26:26.188Z,18.60
2023-04-20T23:31:41.985Z,14.70
2023-04-20T23:34:15.583Z,16.90
2023-04-20T23:36:54.414Z,14.38
2023-04-20T23:39:35.333Z,16.58
2023-04-20T23:42:14.218Z,15.83
2023-04-20T23:44:51.803Z,14.48
2023-04-20T23:47:32.927Z,13.20
2023-04-20T23:50:09.509Z,17.10
2023-04-20T23:52:45.042Z,15.30
2023-04-20T23:55:22.774Z,14.50
2023-04-20T23:57:56.504Z,13.60
